sensor_id;sensor_type;location;lat;lon;timestamp;P1;durP1;ratioP1;P2;durP2;ratioP2
1000;SDS011;489;47.806;12.858;2023-07-09T00:00:01;5.80;;;5.30;;
1000;SDS011;489;47.806;12.858;2023-07-09T00:02:03;5.80;;;5.20;;
1000;SDS011;489;47.806;12.858;2023-07-09T00:04:07;5.77;;;5.20;;
1000;SDS011;489;47.806;12.858;2023-07-09T00:06:10;5.80;;;4.93;;
1000;SDS011;489;47.806;12.858;2023-07-09T00:08:12;7.40;;;5.20;;
1000;SDS011;489;47.806;12.858;2023-07-09T00:10:23;7.30;;;5.10;;
1000;SDS011;489;47.806;12.858;2023-07-09T00:12:25;6.47;;;5.63;;
1000;SDS011;489;47.806;12.858;2023-07-09T00:14:27;7.47;;;5.80;;
1000;SDS011;489;47.806;12.858;2023-07-09T00:16:30;6.17;;;5.57;;
1000;SDS011;489;47.806;12.858;2023-07-09T00:18:33;6.73;;;6.03;;
1000;SDS011;489;47.806;12.858;2023-07-09T00:20:35;7.53;;;5.53;;
1000;SDS011;489;47.806;12.858;2023-07-09T00:22:37;5.77;;;5.20;;
1000;SDS011;489;47.806;12.858;2023-07-09T00:24:39;5.40;;;4.80;;
1000;SDS011;489;47.806;12.858;2023-07-09T00:26:41;6.17;;;5.50;;
1000;SDS011;489;47.806;12.858;2023-07-09T00:28:42;6.50;;;5.23;;
1000;SDS011;489;47.806;12.858;2023-07-09T00:30:44;5.87;;;5.37;;
1000;SDS011;489;47.806;12.858;2023-07-09T00:32:48;6.60;;;5.30;;
1000;SDS011;489;47.806;12.858;2023-07-09T00:34:50;6.90;;;6.20;;
1000;SDS011;489;47.806;12.858;2023-07-09T00:36:54;6.93;;;5.70;;
1000;SDS011;489;47.806;12.858;2023-07-09T00:38:55;5.83;;;5.20;;
1000;SDS011;489;47.806;12.858;2023-07-09T00:41:01;8.43;;;5.97;;
1000;SDS011;489;47.806;12.858;2023-07-09T00:43:04;8.30;;;5.30;;
1000;SDS011;489;47.806;12.858;2023-07-09T00:45:16;6.00;;;5.37;;
1000;SDS011;489;47.806;12.858;2023-07-09T00:47:22;6.40;;;5.57;;
1000;SDS011;489;47.806;12.858;2023-07-09T00:49:38;5.80;;;4.90;;
1000;SDS011;489;47.806;12.858;2023-07-09T00:51:46;5.83;;;5.23;;
1000;SDS011;489;47.806;12.858;2023-07-09T00:53:48;5.97;;;5.07;;
1000;SDS011;489;47.806;12.858;2023-07-09T00:55:52;5.53;;;5.03;;
1000;SDS011;489;47.806;12.858;2023-07-09T00:57:58;6.43;;;5.27;;
1000;SDS011;489;47.806;12.858;2023-07-09T01:00:03;5.87;;;5.20;;
1000;SDS011;489;47.806;12.858;2023-07-09T01:02:10;5.27;;;4.77;;
1000;SDS011;489;47.806;12.858;2023-07-09T01:04:14;6.10;;;4.93;;
1000;SDS011;489;47.806;12.858;2023-07-09T01:06:19;6.90;;;5.87;;
1000;SDS011;489;47.806;12.858;2023-07-09T01:08:33;5.70;;;5.20;;
1000;SDS011;489;47.806;12.858;2023-07-09T01:10:36;5.50;;;4.80;;
1000;SDS011;489;47.806;12.858;2023-07-09T01:12:40;6.43;;;5.40;;
1000;SDS011;489;47.806;12.858;2023-07-09T01:14:42;5.93;;;5.27;;
1000;SDS011;489;47.806;12.858;2023-07-09T01:16:48;5.40;;;4.87;;
1000;SDS011;489;47.806;12.858;2023-07-09T01:18:54;5.50;;;4.90;;
1000;SDS011;489;47.806;12.858;2023-07-09T01:21:01;6.50;;;5.40;;
1000;SDS011;489;47.806;12.858;2023-07-09T01:23:04;7.97;;;5.63;;
1000;SDS011;489;47.806;12.858;2023-07-09T01:25:06;5.83;;;5.23;;
1000;SDS011;489;47.806;12.858;2023-07-09T01:27:11;5.33;;;4.83;;
1000;SDS011;489;47.806;12.858;2023-07-09T01:29:12;6.00;;;4.60;;
1000;SDS011;489;47.806;12.858;2023-07-09T01:31:14;5.83;;;4.90;;
1000;SDS011;489;47.806;12.858;2023-07-09T01:33:16;7.33;;;5.50;;
1000;SDS011;489;47.806;12.858;2023-07-09T01:35:18;5.97;;;5.00;;
1000;SDS011;489;47.806;12.858;2023-07-09T01:37:25;6.43;;;5.53;;
1000;SDS011;489;47.806;12.858;2023-07-09T01:39:27;5.77;;;5.00;;
1000;SDS011;489;47.806;12.858;2023-07-09T01:41:29;5.90;;;5.30;;
1000;SDS011;489;47.806;12.858;2023-07-09T01:43:34;6.03;;;5.30;;
1000;SDS011;489;47.806;12.858;2023-07-09T01:45:37;6.93;;;5.40;;
1000;SDS011;489;47.806;12.858;2023-07-09T01:47:39;5.70;;;5.20;;
1000;SDS011;489;47.806;12.858;2023-07-09T01:49:40;5.80;;;5.00;;
1000;SDS011;489;47.806;12.858;2023-07-09T01:51:41;5.20;;;4.33;;
1000;SDS011;489;47.806;12.858;2023-07-09T01:53:45;9.30;;;5.30;;
1000;SDS011;489;47.806;12.858;2023-07-09T01:55:47;5.80;;;5.10;;
1000;SDS011;489;47.806;12.858;2023-07-09T01:57:49;7.80;;;5.63;;
1000;SDS011;489;47.806;12.858;2023-07-09T01:59:52;5.73;;;5.23;;
1000;SDS011;489;47.806;12.858;2023-07-09T02:01:55;5.50;;;5.00;;
1000;SDS011;489;47.806;12.858;2023-07-09T02:03:57;5.73;;;5.17;;
1000;SDS011;489;47.806;12.858;2023-07-09T02:05:59;7.63;;;5.60;;
1000;SDS011;489;47.806;12.858;2023-07-09T02:08:03;5.63;;;5.07;;
1000;SDS011;489;47.806;12.858;2023-07-09T02:10:07;6.20;;;5.57;;
1000;SDS011;489;47.806;12.858;2023-07-09T02:12:10;5.93;;;5.27;;
1000;SDS011;489;47.806;12.858;2023-07-09T02:14:12;5.50;;;4.90;;
1000;SDS011;489;47.806;12.858;2023-07-09T02:16:15;5.20;;;4.70;;
1000;SDS011;489;47.806;12.858;2023-07-09T02:18:17;5.83;;;5.07;;
1000;SDS011;489;47.806;12.858;2023-07-09T02:20:19;5.23;;;4.83;;
1000;SDS011;489;47.806;12.858;2023-07-09T02:22:21;5.23;;;4.73;;
1000;SDS011;489;47.806;12.858;2023-07-09T02:24:23;6.27;;;4.53;;
1000;SDS011;489;47.806;12.858;2023-07-09T02:26:26;5.40;;;4.80;;
1000;SDS011;489;47.806;12.858;2023-07-09T02:28:28;5.53;;;5.03;;
1000;SDS011;489;47.806;12.858;2023-07-09T02:30:30;5.83;;;4.30;;
1000;SDS011;489;47.806;12.858;2023-07-09T02:32:32;5.80;;;5.30;;
1000;SDS011;489;47.806;12.858;2023-07-09T02:34:34;5.60;;;5.10;;
1000;SDS011;489;47.806;12.858;2023-07-09T02:36:36;6.07;;;4.90;;
1000;SDS011;489;47.806;12.858;2023-07-09T02:38:37;8.20;;;5.60;;
1000;SDS011;489;47.806;12.858;2023-07-09T02:40:39;5.60;;;5.07;;
1000;SDS011;489;47.806;12.858;2023-07-09T02:42:42;5.20;;;4.70;;
1000;SDS011;489;47.806;12.858;2023-07-09T02:44:44;6.83;;;6.13;;
1000;SDS011;489;47.806;12.858;2023-07-09T02:46:46;5.30;;;4.80;;
1000;SDS011;489;47.806;12.858;2023-07-09T02:48:48;6.10;;;5.37;;
1000;SDS011;489;47.806;12.858;2023-07-09T02:50:50;6.50;;;5.10;;
1000;SDS011;489;47.806;12.858;2023-07-09T02:52:52;5.23;;;4.73;;
1000;SDS011;489;47.806;12.858;2023-07-09T02:54:54;6.97;;;5.30;;
1000;SDS011;489;47.806;12.858;2023-07-09T02:56:56;5.73;;;4.57;;
1000;SDS011;489;47.806;12.858;2023-07-09T02:59:00;5.90;;;5.10;;
1000;SDS011;489;47.806;12.858;2023-07-09T03:01:03;8.07;;;4.77;;
1000;SDS011;489;47.806;12.858;2023-07-09T03:03:05;5.50;;;4.67;;
1000;SDS011;489;47.806;12.858;2023-07-09T03:05:07;5.70;;;4.73;;
1000;SDS011;489;47.806;12.858;2023-07-09T03:07:11;6.13;;;4.90;;
1000;SDS011;489;47.806;12.858;2023-07-09T03:09:13;6.53;;;5.00;;
1000;SDS011;489;47.806;12.858;2023-07-09T03:11:14;5.87;;;4.83;;
1000;SDS011;489;47.806;12.858;2023-07-09T03:13:17;5.10;;;4.60;;
1000;SDS011;489;47.806;12.858;2023-07-09T03:15:19;5.40;;;4.90;;
1000;SDS011;489;47.806;12.858;2023-07-09T03:17:21;5.87;;;5.27;;
1000;SDS011;489;47.806;12.858;2023-07-09T03:19:22;6.33;;;5.03;;
1000;SDS011;489;47.806;12.858;2023-07-09T03:21:25;5.07;;;4.53;;
1000;SDS011;489;47.806;12.858;2023-07-09T03:23:28;5.90;;;4.90;;
1000;SDS011;489;47.806;12.858;2023-07-09T03:25:30;6.00;;;4.70;;
1000;SDS011;489;47.806;12.858;2023-07-09T03:27:33;7.17;;;4.90;;
1000;SDS011;489;47.806;12.858;2023-07-09T03:29:35;4.97;;;4.27;;
1000;SDS011;489;47.806;12.858;2023-07-09T03:31:38;6.37;;;4.70;;
1000;SDS011;489;47.806;12.858;2023-07-09T03:33:40;5.43;;;4.90;;
1000;SDS011;489;47.806;12.858;2023-07-09T03:35:42;5.73;;;5.10;;
1000;SDS011;489;47.806;12.858;2023-07-09T03:37:44;4.93;;;4.43;;
1000;SDS011;489;47.806;12.858;2023-07-09T03:39:45;5.27;;;4.77;;
1000;SDS011;489;47.806;12.858;2023-07-09T03:41:47;5.73;;;5.13;;
1000;SDS011;489;47.806;12.858;2023-07-09T03:43:49;5.63;;;5.07;;
1000;SDS011;489;47.806;12.858;2023-07-09T03:45:53;5.90;;;4.77;;
1000;SDS011;489;47.806;12.858;2023-07-09T03:47:56;7.37;;;5.47;;
1000;SDS011;489;47.806;12.858;2023-07-09T03:49:58;5.60;;;5.00;;
1000;SDS011;489;47.806;12.858;2023-07-09T03:52:00;6.17;;;5.10;;
1000;SDS011;489;47.806;12.858;2023-07-09T03:54:02;4.97;;;4.57;;
1000;SDS011;489;47.806;12.858;2023-07-09T03:56:04;5.63;;;5.03;;
1000;SDS011;489;47.806;12.858;2023-07-09T03:58:06;6.13;;;5.30;;
1000;SDS011;489;47.806;12.858;2023-07-09T04:00:08;5.53;;;4.90;;
1000;SDS011;489;47.806;12.858;2023-07-09T04:02:17;6.00;;;5.40;;
1000;SDS011;489;47.806;12.858;2023-07-09T04:04:20;10.93;;;6.90;;
1000;SDS011;489;47.806;12.858;2023-07-09T04:06:22;7.07;;;6.20;;
1000;SDS011;489;47.806;12.858;2023-07-09T04:08:24;6.90;;;6.20;;
1000;SDS011;489;47.806;12.858;2023-07-09T04:10:26;6.73;;;6.00;;
1000;SDS011;489;47.806;12.858;2023-07-09T04:12:28;5.30;;;4.80;;
1000;SDS011;489;47.806;12.858;2023-07-09T04:14:30;5.73;;;5.20;;
1000;SDS011;489;47.806;12.858;2023-07-09T04:16:32;5.23;;;4.70;;
1000;SDS011;489;47.806;12.858;2023-07-09T04:18:35;6.30;;;5.37;;
1000;SDS011;489;47.806;12.858;2023-07-09T04:20:38;6.17;;;5.17;;
1000;SDS011;489;47.806;12.858;2023-07-09T04:22:40;5.67;;;5.10;;
1000;SDS011;489;47.806;12.858;2023-07-09T04:24:42;8.00;;;6.17;;
1000;SDS011;489;47.806;12.858;2023-07-09T04:26:44;5.60;;;4.73;;
1000;SDS011;489;47.806;12.858;2023-07-09T04:28:46;6.70;;;5.10;;
1000;SDS011;489;47.806;12.858;2023-07-09T04:30:48;6.40;;;5.13;;
1000;SDS011;489;47.806;12.858;2023-07-09T04:32:50;4.73;;;4.10;;
1000;SDS011;489;47.806;12.858;2023-07-09T04:34:52;6.17;;;5.20;;
1000;SDS011;489;47.806;12.858;2023-07-09T04:36:56;5.40;;;4.90;;
1000;SDS011;489;47.806;12.858;2023-07-09T04:38:58;7.63;;;5.20;;
1000;SDS011;489;47.806;12.858;2023-07-09T04:41:00;6.10;;;4.80;;
1000;SDS011;489;47.806;12.858;2023-07-09T04:43:02;6.57;;;5.17;;
1000;SDS011;489;47.806;12.858;2023-07-09T04:45:05;7.07;;;4.93;;
1000;SDS011;489;47.806;12.858;2023-07-09T04:47:07;5.70;;;5.20;;
1000;SDS011;489;47.806;12.858;2023-07-09T04:49:09;5.73;;;5.20;;
1000;SDS011;489;47.806;12.858;2023-07-09T04:51:12;5.40;;;4.90;;
1000;SDS011;489;47.806;12.858;2023-07-09T04:53:15;6.00;;;4.70;;
1000;SDS011;489;47.806;12.858;2023-07-09T04:55:18;5.63;;;5.10;;
1000;SDS011;489;47.806;12.858;2023-07-09T04:57:21;6.93;;;4.93;;
1000;SDS011;489;47.806;12.858;2023-07-09T04:59:22;11.00;;;5.20;;
1000;SDS011;489;47.806;12.858;2023-07-09T05:01:24;5.67;;;4.87;;
1000;SDS011;489;47.806;12.858;2023-07-09T05:03:26;6.20;;;5.03;;
1000;SDS011;489;47.806;12.858;2023-07-09T05:05:28;5.90;;;5.33;;
1000;SDS011;489;47.806;12.858;2023-07-09T05:07:32;5.37;;;4.83;;
1000;SDS011;489;47.806;12.858;2023-07-09T05:09:35;5.40;;;4.90;;
1000;SDS011;489;47.806;12.858;2023-07-09T05:11:36;6.10;;;5.50;;
1000;SDS011;489;47.806;12.858;2023-07-09T05:13:38;7.47;;;5.70;;
1000;SDS011;489;47.806;12.858;2023-07-09T05:15:40;6.90;;;5.10;;
1000;SDS011;489;47.806;12.858;2023-07-09T05:17:43;5.63;;;5.13;;
1000;SDS011;489;47.806;12.858;2023-07-09T05:19:45;6.10;;;5.40;;
1000;SDS011;489;47.806;12.858;2023-07-09T05:21:47;5.60;;;5.10;;
1000;SDS011;489;47.806;12.858;2023-07-09T05:23:48;5.80;;;5.20;;
1000;SDS011;489;47.806;12.858;2023-07-09T05:25:51;6.73;;;5.53;;
1000;SDS011;489;47.806;12.858;2023-07-09T05:27:57;6.07;;;5.00;;
1000;SDS011;489;47.806;12.858;2023-07-09T05:30:02;5.93;;;5.07;;
1000;SDS011;489;47.806;12.858;2023-07-09T05:32:05;7.20;;;5.33;;
1000;SDS011;489;47.806;12.858;2023-07-09T05:34:08;6.10;;;5.07;;
1000;SDS011;489;47.806;12.858;2023-07-09T05:36:09;5.80;;;5.23;;
1000;SDS011;489;47.806;12.858;2023-07-09T05:38:15;7.60;;;5.90;;
1000;SDS011;489;47.806;12.858;2023-07-09T05:40:17;5.50;;;5.10;;
1000;SDS011;489;47.806;12.858;2023-07-09T05:42:20;6.80;;;5.80;;
1000;SDS011;489;47.806;12.858;2023-07-09T05:44:22;5.57;;;5.03;;
1000;SDS011;489;47.806;12.858;2023-07-09T05:46:24;7.10;;;5.77;;
1000;SDS011;489;47.806;12.858;2023-07-09T05:48:26;7.73;;;5.70;;
1000;SDS011;489;47.806;12.858;2023-07-09T05:50:28;6.03;;;5.43;;
1000;SDS011;489;47.806;12.858;2023-07-09T05:52:30;5.87;;;5.20;;
1000;SDS011;489;47.806;12.858;2023-07-09T05:54:33;10.90;;;5.83;;
1000;SDS011;489;47.806;12.858;2023-07-09T05:56:35;5.90;;;5.17;;
1000;SDS011;489;47.806;12.858;2023-07-09T05:58:38;6.13;;;5.53;;
1000;SDS011;489;47.806;12.858;2023-07-09T06:00:39;7.00;;;5.70;;
1000;SDS011;489;47.806;12.858;2023-07-09T06:02:41;7.10;;;5.60;;
1000;SDS011;489;47.806;12.858;2023-07-09T06:04:43;6.10;;;5.23;;
1000;SDS011;489;47.806;12.858;2023-07-09T06:06:45;6.87;;;6.20;;
1000;SDS011;489;47.806;12.858;2023-07-09T06:08:47;6.40;;;5.80;;
1000;SDS011;489;47.806;12.858;2023-07-09T06:10:52;7.00;;;5.33;;
1000;SDS011;489;47.806;12.858;2023-07-09T06:12:56;6.90;;;5.27;;
1000;SDS011;489;47.806;12.858;2023-07-09T06:14:59;7.10;;;5.20;;
1000;SDS011;489;47.806;12.858;2023-07-09T06:17:01;6.20;;;5.50;;
1000;SDS011;489;47.806;12.858;2023-07-09T06:19:03;6.20;;;5.60;;
1000;SDS011;489;47.806;12.858;2023-07-09T06:21:05;7.80;;;5.70;;
1000;SDS011;489;47.806;12.858;2023-07-09T06:23:10;7.37;;;5.77;;
1000;SDS011;489;47.806;12.858;2023-07-09T06:25:11;6.57;;;5.23;;
1000;SDS011;489;47.806;12.858;2023-07-09T06:27:13;6.27;;;5.50;;
1000;SDS011;489;47.806;12.858;2023-07-09T06:29:15;5.93;;;5.33;;
1000;SDS011;489;47.806;12.858;2023-07-09T06:31:19;6.03;;;5.43;;
1000;SDS011;489;47.806;12.858;2023-07-09T06:33:21;7.17;;;5.47;;
1000;SDS011;489;47.806;12.858;2023-07-09T06:35:23;6.43;;;5.47;;
1000;SDS011;489;47.806;12.858;2023-07-09T06:37:25;6.37;;;5.77;;
1000;SDS011;489;47.806;12.858;2023-07-09T06:39:26;6.80;;;5.60;;
1000;SDS011;489;47.806;12.858;2023-07-09T06:41:28;5.80;;;5.30;;
1000;SDS011;489;47.806;12.858;2023-07-09T06:43:33;8.77;;;5.40;;
1000;SDS011;489;47.806;12.858;2023-07-09T06:45:38;5.87;;;5.37;;
1000;SDS011;489;47.806;12.858;2023-07-09T06:47:42;8.33;;;6.10;;
1000;SDS011;489;47.806;12.858;2023-07-09T06:49:44;6.40;;;5.80;;
1000;SDS011;489;47.806;12.858;2023-07-09T06:51:45;5.90;;;5.30;;
1000;SDS011;489;47.806;12.858;2023-07-09T06:54:06;5.53;;;4.70;;
1000;SDS011;489;47.806;12.858;2023-07-09T06:56:09;6.27;;;5.30;;
1000;SDS011;489;47.806;12.858;2023-07-09T06:58:11;6.30;;;5.70;;
1000;SDS011;489;47.806;12.858;2023-07-09T07:00:13;8.23;;;5.67;;
1000;SDS011;489;47.806;12.858;2023-07-09T07:02:15;8.23;;;6.23;;
1000;SDS011;489;47.806;12.858;2023-07-09T07:04:19;6.47;;;5.87;;
1000;SDS011;489;47.806;12.858;2023-07-09T07:06:21;7.43;;;5.70;;
1000;SDS011;489;47.806;12.858;2023-07-09T07:08:23;6.83;;;5.80;;
1000;SDS011;489;47.806;12.858;2023-07-09T07:10:26;5.77;;;5.27;;
1000;SDS011;489;47.806;12.858;2023-07-09T07:12:28;6.43;;;5.83;;
1000;SDS011;489;47.806;12.858;2023-07-09T07:14:30;5.97;;;5.33;;
1000;SDS011;489;47.806;12.858;2023-07-09T07:16:32;6.37;;;5.70;;
1000;SDS011;489;47.806;12.858;2023-07-09T07:18:34;7.40;;;5.87;;
1000;SDS011;489;47.806;12.858;2023-07-09T07:20:38;6.00;;;5.40;;
1000;SDS011;489;47.806;12.858;2023-07-09T07:22:40;6.37;;;5.77;;
1000;SDS011;489;47.806;12.858;2023-07-09T07:24:42;6.50;;;5.37;;
1000;SDS011;489;47.806;12.858;2023-07-09T07:26:44;7.03;;;5.57;;
1000;SDS011;489;47.806;12.858;2023-07-09T07:28:46;6.50;;;5.60;;
1000;SDS011;489;47.806;12.858;2023-07-09T07:30:57;5.93;;;5.33;;
1000;SDS011;489;47.806;12.858;2023-07-09T07:32:59;6.50;;;5.23;;
1000;SDS011;489;47.806;12.858;2023-07-09T07:35:01;8.97;;;5.50;;
1000;SDS011;489;47.806;12.858;2023-07-09T07:37:04;10.47;;;6.00;;
1000;SDS011;489;47.806;12.858;2023-07-09T07:39:06;6.30;;;5.70;;
1000;SDS011;489;47.806;12.858;2023-07-09T07:41:09;7.07;;;5.67;;
1000;SDS011;489;47.806;12.858;2023-07-09T07:43:11;8.10;;;5.30;;
1000;SDS011;489;47.806;12.858;2023-07-09T07:45:12;5.90;;;5.30;;
1000;SDS011;489;47.806;12.858;2023-07-09T07:47:13;6.67;;;6.00;;
1000;SDS011;489;47.806;12.858;2023-07-09T07:49:15;8.43;;;6.20;;
1000;SDS011;489;47.806;12.858;2023-07-09T07:51:17;6.83;;;6.03;;
1000;SDS011;489;47.806;12.858;2023-07-09T07:53:21;6.90;;;5.97;;
1000;SDS011;489;47.806;12.858;2023-07-09T07:55:23;6.57;;;5.93;;
1000;SDS011;489;47.806;12.858;2023-07-09T07:57:25;6.60;;;5.80;;
1000;SDS011;489;47.806;12.858;2023-07-09T07:59:27;7.57;;;5.47;;
1000;SDS011;489;47.806;12.858;2023-07-09T08:01:29;7.40;;;6.40;;
1000;SDS011;489;47.806;12.858;2023-07-09T08:03:31;6.20;;;5.53;;
1000;SDS011;489;47.806;12.858;2023-07-09T08:05:33;7.27;;;5.93;;
1000;SDS011;489;47.806;12.858;2023-07-09T08:07:35;5.27;;;4.77;;
1000;SDS011;489;47.806;12.858;2023-07-09T08:09:38;5.57;;;5.07;;
1000;SDS011;489;47.806;12.858;2023-07-09T08:11:40;5.45;;;4.82;;
1000;SDS011;489;47.806;12.858;2023-07-09T08:13:42;6.10;;;5.07;;
1000;SDS011;489;47.806;12.858;2023-07-09T08:15:45;5.95;;;5.03;;
1000;SDS011;489;47.806;12.858;2023-07-09T08:17:47;5.50;;;5.00;;
1000;SDS011;489;47.806;12.858;2023-07-09T08:19:50;5.72;;;5.22;;
1000;SDS011;489;47.806;12.858;2023-07-09T08:21:53;6.47;;;5.20;;
1000;SDS011;489;47.806;12.858;2023-07-09T08:23:55;5.22;;;4.80;;
1000;SDS011;489;47.806;12.858;2023-07-09T08:25:58;5.32;;;4.82;;
1000;SDS011;489;47.806;12.858;2023-07-09T08:28:02;6.60;;;5.00;;
1000;SDS011;489;47.806;12.858;2023-07-09T08:30:04;5.78;;;4.78;;
1000;SDS011;489;47.806;12.858;2023-07-09T08:32:07;5.47;;;4.57;;
1000;SDS011;489;47.806;12.858;2023-07-09T08:34:10;7.60;;;4.95;;
1000;SDS011;489;47.806;12.858;2023-07-09T08:36:11;6.28;;;5.68;;
1000;SDS011;489;47.806;12.858;2023-07-09T08:38:13;6.05;;;4.65;;
1000;SDS011;489;47.806;12.858;2023-07-09T08:40:16;5.05;;;4.55;;
1000;SDS011;489;47.806;12.858;2023-07-09T08:42:23;5.43;;;4.88;;
1000;SDS011;489;47.806;12.858;2023-07-09T08:44:33;5.88;;;5.28;;
1000;SDS011;489;47.806;12.858;2023-07-09T08:46:59;5.88;;;5.32;;
1000;SDS011;489;47.806;12.858;2023-07-09T08:49:08;4.90;;;4.50;;
1000;SDS011;489;47.806;12.858;2023-07-09T08:51:14;5.18;;;4.78;;
1000;SDS011;489;47.806;12.858;2023-07-09T08:53:19;4.85;;;4.45;;
1000;SDS011;489;47.806;12.858;2023-07-09T08:55:24;6.10;;;4.68;;
1000;SDS011;489;47.806;12.858;2023-07-09T08:57:32;6.03;;;5.30;;
1000;SDS011;489;47.806;12.858;2023-07-09T08:59:36;6.80;;;5.43;;
1000;SDS011;489;47.806;12.858;2023-07-09T09:01:38;4.93;;;4.50;;
1000;SDS011;489;47.806;12.858;2023-07-09T09:03:46;6.38;;;5.20;;
1000;SDS011;489;47.806;12.858;2023-07-09T09:05:50;5.50;;;4.90;;
1000;SDS011;489;47.806;12.858;2023-07-09T09:07:55;5.13;;;4.65;;
1000;SDS011;489;47.806;12.858;2023-07-09T09:09:58;5.03;;;4.47;;
1000;SDS011;489;47.806;12.858;2023-07-09T09:12:04;5.20;;;4.25;;
1000;SDS011;489;47.806;12.858;2023-07-09T09:14:23;5.10;;;4.60;;
1000;SDS011;489;47.806;12.858;2023-07-09T09:16:28;5.53;;;4.80;;
1000;SDS011;489;47.806;12.858;2023-07-09T09:18:34;5.55;;;4.60;;
1000;SDS011;489;47.806;12.858;2023-07-09T09:20:40;5.57;;;5.05;;
1000;SDS011;489;47.806;12.858;2023-07-09T09:22:44;6.43;;;5.65;;
1000;SDS011;489;47.806;12.858;2023-07-09T09:24:54;5.78;;;5.28;;
1000;SDS011;489;47.806;12.858;2023-07-09T09:26:58;5.00;;;4.55;;
1000;SDS011;489;47.806;12.858;2023-07-09T09:29:00;5.32;;;4.82;;
1000;SDS011;489;47.806;12.858;2023-07-09T09:31:14;5.75;;;4.82;;
1000;SDS011;489;47.806;12.858;2023-07-09T09:33:16;5.22;;;4.80;;
1000;SDS011;489;47.806;12.858;2023-07-09T09:35:19;5.10;;;4.70;;
1000;SDS011;489;47.806;12.858;2023-07-09T09:37:29;6.10;;;5.50;;
1000;SDS011;489;47.806;12.858;2023-07-09T09:39:31;6.13;;;5.50;;
1000;SDS011;489;47.806;12.858;2023-07-09T09:41:34;5.65;;;4.80;;
1000;SDS011;489;47.806;12.858;2023-07-09T09:43:38;5.63;;;4.70;;
1000;SDS011;489;47.806;12.858;2023-07-09T09:45:43;5.90;;;5.30;;
1000;SDS011;489;47.806;12.858;2023-07-09T09:47:48;8.95;;;5.38;;
1000;SDS011;489;47.806;12.858;2023-07-09T09:49:51;5.55;;;5.03;;
1000;SDS011;489;47.806;12.858;2023-07-09T09:51:54;5.72;;;5.22;;
1000;SDS011;489;47.806;12.858;2023-07-09T09:53:57;5.00;;;4.45;;
1000;SDS011;489;47.806;12.858;2023-07-09T09:56:03;6.95;;;4.40;;
1000;SDS011;489;47.806;12.858;2023-07-09T09:58:11;7.40;;;5.20;;
1000;SDS011;489;47.806;12.858;2023-07-09T10:00:15;5.50;;;5.03;;
1000;SDS011;489;47.806;12.858;2023-07-09T10:02:18;5.20;;;4.70;;
1000;SDS011;489;47.806;12.858;2023-07-09T10:04:22;5.00;;;4.50;;
1000;SDS011;489;47.806;12.858;2023-07-09T10:06:33;5.30;;;4.72;;
1000;SDS011;489;47.806;12.858;2023-07-09T10:08:37;5.70;;;4.90;;
1000;SDS011;489;47.806;12.858;2023-07-09T10:10:50;5.00;;;4.40;;
1000;SDS011;489;47.806;12.858;2023-07-09T10:12:55;5.28;;;4.78;;
1000;SDS011;489;47.806;12.858;2023-07-09T10:15:01;5.95;;;4.30;;
1000;SDS011;489;47.806;12.858;2023-07-09T10:17:15;6.63;;;4.88;;
1000;SDS011;489;47.806;12.858;2023-07-09T10:19:23;4.63;;;4.22;;
1000;SDS011;489;47.806;12.858;2023-07-09T10:21:31;5.25;;;4.75;;
1000;SDS011;489;47.806;12.858;2023-07-09T10:23:37;6.13;;;4.78;;
1000;SDS011;489;47.806;12.858;2023-07-09T10:25:46;5.82;;;5.22;;
1000;SDS011;489;47.806;12.858;2023-07-09T10:28:12;5.85;;;4.80;;
1000;SDS011;489;47.806;12.858;2023-07-09T10:30:28;4.85;;;4.28;;
1000;SDS011;489;47.806;12.858;2023-07-09T10:32:39;5.20;;;4.40;;
1000;SDS011;489;47.806;12.858;2023-07-09T10:34:49;5.30;;;4.80;;
1000;SDS011;489;47.806;12.858;2023-07-09T10:37:04;4.82;;;4.20;;
1000;SDS011;489;47.806;12.858;2023-07-09T10:39:17;5.00;;;4.60;;
1000;SDS011;489;47.806;12.858;2023-07-09T10:41:21;7.15;;;4.60;;
1000;SDS011;489;47.806;12.858;2023-07-09T10:43:28;5.30;;;4.80;;
1000;SDS011;489;47.806;12.858;2023-07-09T10:45:34;5.25;;;4.40;;
1000;SDS011;489;47.806;12.858;2023-07-09T10:47:41;5.00;;;4.50;;
1000;SDS011;489;47.806;12.858;2023-07-09T10:49:44;4.78;;;4.20;;
1000;SDS011;489;47.806;12.858;2023-07-09T10:51:48;4.85;;;4.22;;
1000;SDS011;489;47.806;12.858;2023-07-09T10:53:55;5.07;;;4.38;;
1000;SDS011;489;47.806;12.858;2023-07-09T10:56:00;4.82;;;4.40;;
1000;SDS011;489;47.806;12.858;2023-07-09T10:58:18;5.65;;;4.78;;
1000;SDS011;489;47.806;12.858;2023-07-09T11:00:32;4.20;;;3.80;;
1000;SDS011;489;47.806;12.858;2023-07-09T11:02:36;5.20;;;4.10;;
1000;SDS011;489;47.806;12.858;2023-07-09T11:04:39;4.72;;;4.13;;
1000;SDS011;489;47.806;12.858;2023-07-09T11:06:45;4.57;;;3.97;;
1000;SDS011;489;47.806;12.858;2023-07-09T11:08:52;5.25;;;4.20;;
1000;SDS011;489;47.806;12.858;2023-07-09T11:10:58;5.35;;;4.05;;
1000;SDS011;489;47.806;12.858;2023-07-09T11:13:02;4.45;;;4.05;;
1000;SDS011;489;47.806;12.858;2023-07-09T11:15:06;5.15;;;4.45;;
1000;SDS011;489;47.806;12.858;2023-07-09T11:17:13;4.55;;;4.15;;
1000;SDS011;489;47.806;12.858;2023-07-09T11:19:17;5.72;;;4.32;;
1000;SDS011;489;47.806;12.858;2023-07-09T11:21:20;5.35;;;4.43;;
1000;SDS011;489;47.806;12.858;2023-07-09T11:23:24;9.05;;;4.40;;
1000;SDS011;489;47.806;12.858;2023-07-09T11:25:27;4.63;;;4.22;;
1000;SDS011;489;47.806;12.858;2023-07-09T11:27:30;6.10;;;4.28;;
1000;SDS011;489;47.806;12.858;2023-07-09T11:29:32;4.25;;;3.85;;
1000;SDS011;489;47.806;12.858;2023-07-09T11:31:36;4.30;;;3.90;;
1000;SDS011;489;47.806;12.858;2023-07-09T11:33:45;4.57;;;4.18;;
1000;SDS011;489;47.806;12.858;2023-07-09T11:35:48;4.57;;;4.18;;
1000;SDS011;489;47.806;12.858;2023-07-09T11:37:51;6.65;;;4.05;;
1000;SDS011;489;47.806;12.858;2023-07-09T11:39:55;4.28;;;3.88;;
1000;SDS011;489;47.806;12.858;2023-07-09T11:42:22;4.82;;;4.32;;
1000;SDS011;489;47.806;12.858;2023-07-09T11:44:26;5.22;;;4.10;;
1000;SDS011;489;47.806;12.858;2023-07-09T11:46:29;4.68;;;4.22;;
1000;SDS011;489;47.806;12.858;2023-07-09T11:48:32;4.78;;;4.18;;
1000;SDS011;489;47.806;12.858;2023-07-09T11:50:38;3.88;;;3.58;;
1000;SDS011;489;47.806;12.858;2023-07-09T11:52:43;4.07;;;3.72;;
1000;SDS011;489;47.806;12.858;2023-07-09T11:54:49;4.35;;;3.95;;
1000;SDS011;489;47.806;12.858;2023-07-09T11:56:56;5.00;;;4.60;;
1000;SDS011;489;47.806;12.858;2023-07-09T11:58:59;6.72;;;3.65;;
1000;SDS011;489;47.806;12.858;2023-07-09T12:01:01;5.13;;;4.40;;
1000;SDS011;489;47.806;12.858;2023-07-09T12:03:03;4.57;;;4.18;;
1000;SDS011;489;47.806;12.858;2023-07-09T12:05:06;5.28;;;4.78;;
1000;SDS011;489;47.806;12.858;2023-07-09T12:07:09;6.63;;;4.20;;
1000;SDS011;489;47.806;12.858;2023-07-09T12:09:15;4.53;;;4.18;;
1000;SDS011;489;47.806;12.858;2023-07-09T12:11:19;5.65;;;4.45;;
1000;SDS011;489;47.806;12.858;2023-07-09T12:13:23;5.30;;;4.43;;
1000;SDS011;489;47.806;12.858;2023-07-09T12:15:26;5.10;;;4.38;;
1000;SDS011;489;47.806;12.858;2023-07-09T12:17:29;4.55;;;4.15;;
1000;SDS011;489;47.806;12.858;2023-07-09T12:19:33;4.43;;;3.90;;
1000;SDS011;489;47.806;12.858;2023-07-09T12:21:36;4.30;;;3.90;;
1000;SDS011;489;47.806;12.858;2023-07-09T12:23:39;5.22;;;4.78;;
1000;SDS011;489;47.806;12.858;2023-07-09T12:25:46;4.30;;;3.90;;
1000;SDS011;489;47.806;12.858;2023-07-09T12:28:12;4.50;;;4.10;;
1000;SDS011;489;47.806;12.858;2023-07-09T12:30:17;4.35;;;3.80;;
1000;SDS011;489;47.806;12.858;2023-07-09T12:32:19;5.18;;;4.50;;
1000;SDS011;489;47.806;12.858;2023-07-09T12:34:23;4.32;;;3.88;;
1000;SDS011;489;47.806;12.858;2023-07-09T12:36:26;4.82;;;4.43;;
1000;SDS011;489;47.806;12.858;2023-07-09T12:38:30;4.50;;;4.10;;
1000;SDS011;489;47.806;12.858;2023-07-09T12:40:34;6.78;;;4.10;;
1000;SDS011;489;47.806;12.858;2023-07-09T12:42:35;4.32;;;3.92;;
1000;SDS011;489;47.806;12.858;2023-07-09T12:44:38;4.55;;;3.97;;
1000;SDS011;489;47.806;12.858;2023-07-09T12:46:41;6.38;;;4.35;;
1000;SDS011;489;47.806;12.858;2023-07-09T12:48:44;4.47;;;4.07;;